Time;durP1;ratioP1;P1;durP2;ratioP2;P2;SDS_P1;SDS_P2;PMS_P1;PMS_P2;Temp;Humidity;BMP_temperature;BMP_pressure;BME280_temperature;BME280_humidity;BME280_pressure;Samples;Min_cycle;Max_cycle;Signal;HPM_P1;HPM_P2
2022/10/15 04:22:50;;;;;;;3.22;0.52;;;;;;;15.53;100.00;99514.78;5163137;27;20342;-65
2022/10/15 04:25:16;;;;;;;1.02;0.63;;;;;;;15.56;100.00;99517.00;5163899;27;20051;-63
2022/10/15 04:27:42;;;;;;;0.77;0.55;;;;;;;15.57;100.00;99522.16;5128725;28;20131;-63
2022/10/15 04:30:11;;;;;;;1.50;0.75;;;;;;;15.59;100.00;99530.00;5128480;27;20063;-65
2022/10/15 04:32:41;;;;;;;0.52;0.52;;;;;;;15.60;100.00;99534.31;5128633;28;20031;-65
2022/10/15 04:35:07;;;;;;;0.47;0.40;;;;;;;15.64;100.00;99535.53;5129115;28;20544;-63
2022/10/15 04:38:01;;;;;;;0.50;0.47;;;;;;;15.63;100.00;99533.91;5129906;27;20050;-64
2022/10/15 04:40:46;;;;;;;1.05;0.52;;;;;;;15.64;100.00;99532.84;5129539;28;20158;-65
2022/10/15 04:43:12;;;;;;;0.73;0.50;;;;;;;15.64;100.00;99541.72;5128420;28;20511;-63
2022/10/15 04:45:38;;;;;;;0.90;0.75;;;;;;;15.65;100.00;99537.19;5128480;27;20051;-65
2022/10/15 04:48:03;;;;;;;0.98;0.63;;;;;;;15.65;100.00;99545.25;5128249;28;20059;-64
2022/10/15 04:50:29;;;;;;;0.52;0.50;;;;;;;15.63;100.00;99544.63;5127891;27;20504;-65
2022/10/15 04:53:33;;;;;;;0.95;0.60;;;;;;;15.64;100.00;99560.50;5124257;27;20100;-65
2022/10/15 04:56:00;;;;;;;0.82;0.50;;;;;;;15.64;100.00;99554.31;5128070;28;20040;-65
2022/10/15 04:58:28;;;;;;;0.90;0.45;;;;;;;15.64;100.00;99560.50;5128214;27;20376;-65
2022/10/15 05:00:53;;;;;;;0.77;0.60;;;;;;;15.61;100.00;99560.13;5127845;28;20027;-64
2022/10/15 05:03:32;;;;;;;0.47;0.40;;;;;;;15.59;100.00;99554.97;5128242;28;20036;-64
2022/10/15 05:06:10;;;;;;;1.25;0.65;;;;;;;15.56;100.00;99558.09;5128313;28;20282;-64
2022/10/15 05:08:40;;;;;;;1.20;0.65;;;;;;;15.57;100.00;99559.72;5128088;27;20027;-64
2022/10/15 05:11:18;;;;;;;0.57;0.57;;;;;;;15.55;100.00;99563.69;5129231;27;20032;-63
2022/10/15 05:13:44;;;;;;;1.77;0.70;;;;;;;15.53;100.00;99555.88;5129156;27;20046;-63
2022/10/15 05:16:16;;;;;;;0.73;0.63;;;;;;;15.53;100.00;99574.66;5127988;28;20031;-64
2022/10/15 05:18:44;;;;;;;0.88;0.70;;;;;;;15.51;100.00;99571.34;5127875;27;20125;-63
2022/10/15 05:21:10;;;;;;;1.02;0.60;;;;;;;15.52;100.00;99572.16;5127754;27;20038;-64
2022/10/15 05:23:37;;;;;;;;;;;;;;;15.52;100.00;99577.53;5128193;28;20027;-64
2022/10/15 05:26:20;;;;;;;0.82;0.63;;;;;;;15.47;100.00;99581.72;5127519;28;19955;-63
2022/10/15 05:28:46;;;;;;;0.98;0.65;;;;;;;15.46;100.00;99577.41;5127575;27;20043;-63
2022/10/15 05:31:23;;;;;;;0.52;0.47;;;;;;;15.45;100.00;99577.59;5127102;28;20076;-64
2022/10/15 05:33:55;;;;;;;1.83;1.00;;;;;;;15.43;100.00;99585.88;5115448;28;20035;-63
2022/10/15 05:36:29;;;;;;;1.25;0.82;;;;;;;15.44;100.00;99589.38;5113684;28;20322;-64
2022/10/15 05:38:57;;;;;;;1.50;0.90;;;;;;;15.38;100.00;99593.75;5113648;28;20039;-64
2022/10/15 05:41:24;;;;;;;1.17;1.00;;;;;;;15.38;100.00;99595.63;5114626;28;20136;-63
2022/10/15 05:43:53;;;;;;;2.25;0.80;;;;;;;15.37;100.00;99600.16;5113667;28;20031;-65
2022/10/15 05:46:24;;;;;;;1.20;0.60;;;;;;;15.38;100.00;99601.81;5113581;28;20046;-65
2022/10/15 05:48:54;;;;;;;1.33;0.60;;;;;;;15.40;100.00;99610.50;5114822;28;20518;-65
2022/10/15 05:51:21;;;;;;;1.05;0.65;;;;;;;15.38;100.00;99599.13;5113066;28;20380;-64
2022/10/15 05:53:57;;;;;;;0.63;0.63;;;;;;;15.40;100.00;99610.50;5113464;28;20023;-63
2022/10/15 05:56:23;;;;;;;0.65;0.60;;;;;;;15.41;100.00;99605.94;5113500;28;20043;-62
2022/10/15 05:58:50;;;;;;;1.67;0.52;;;;;;;15.36;100.00;99613.81;5114701;28;20060;-62
2022/10/15 06:01:16;;;;;;;1.20;0.68;;;;;;;15.37;100.00;99608.22;5114311;28;20051;-63
2022/10/15 06:03:47;;;;;;;1.48;1.00;;;;;;;15.37;100.00;99610.91;5113343;28;20036;-65
2022/10/15 06:06:20;;;;;;;1.20;0.75;;;;;;;15.38;100.00;99611.72;5114663;28;20055;-63
2022/10/15 06:08:47;;;;;;;1.85;0.73;;;;;;;15.36;100.00;99617.31;5114555;28;20039;-62
2022/10/15 06:11:13;;;;;;;0.82;0.57;;;;;;;15.33;100.00;99619.63;5114051;28;20043;-63
2022/10/15 06:13:40;;;;;;;1.88;0.68;;;;;;;15.35;100.00;99626.41;5114454;27;20028;-62
2022/10/15 06:16:06;;;;;;;1.58;1.05;;;;;;;15.32;100.00;99623.34;5114275;27;20442;-64
2022/10/15 06:18:32;;;;;;;1.73;1.10;;;;;;;15.35;100.00;99634.47;5114311;28;20043;-62
2022/10/15 06:20:59;;;;;;;;;;;;;;;15.34;100.00;99642.75;5114505;28;20032;-62
2022/10/15 06:23:24;;;;;;;1.27;0.90;;;;;;;15.34;100.00;99632.81;5114324;28;19999;-64
2022/10/15 06:25:50;;;;;;;2.35;1.08;;;;;;;15.36;100.00;99637.97;5114235;28;20031;-63
2022/10/15 06:28:16;;;;;;;2.75;0.85;;;;;;;15.34;100.00;99640.06;5115573;28;20406;-54
2022/10/15 06:30:42;;;;;;;9.77;0.98;;;;;;;15.37;100.00;99636.91;5115340;28;20035;-54
2022/10/15 06:33:08;;;;;;;1.40;1.00;;;;;;;15.35;100.00;99644.38;5115886;28;20349;-52
2022/10/15 06:35:34;;;;;;;2.10;1.17;;;;;;;15.40;100.00;99653.41;5115586;27;20051;-57
2022/10/15 06:38:01;;;;;;;1.45;0.80;;;;;;;15.37;100.00;99656.53;5116061;28;20502;-55
2022/10/15 06:40:26;;;;;;;0.95;0.75;;;;;;;15.38;100.00;99660.84;5115726;27;20070;-54
2022/10/15 06:42:52;;;;;;;0.75;0.60;;;;;;;15.35;100.00;99657.78;5116784;28;20048;-55
2022/10/15 06:45:17;;;;;;;1.02;0.70;;;;;;;15.35;100.00;99652.44;5115946;28;20057;-53
2022/10/15 06:47:42;;;;;;;1.83;0.65;;;;;;;15.38;100.00;99660.03;5116574;28;20070;-55
2022/10/15 06:50:08;;;;;;;4.00;1.00;;;;;;;15.38;100.00;99670.75;5116133;28;20039;-53
2022/10/15 06:52:36;;;;;;;1.58;1.25;;;;;;;15.39;100.00;99667.06;5116993;28;20404;-55
2022/10/15 06:55:02;;;;;;;1.35;0.80;;;;;;;15.40;100.00;99666.84;5116989;28;20036;-56
2022/10/15 06:57:27;;;;;;;1.77;0.98;;;;;;;15.44;100.00;99676.06;5116038;28;20076;-55
2022/10/15 06:59:53;;;;;;;1.52;0.77;;;;;;;15.43;100.00;99669.06;5115519;28;20047;-55
2022/10/15 07:02:19;;;;;;;0.93;0.70;;;;;;;15.48;100.00;99684.53;5113292;28;20098;-53
2022/10/15 07:04:45;;;;;;;1.10;0.80;;;;;;;15.51;100.00;99675.22;5114263;28;20459;-55
2022/10/15 07:07:16;;;;;;;1.05;0.82;;;;;;;15.51;100.00;99688.63;5114993;28;20548;-55
2022/10/15 07:09:42;;;;;;;0.85;0.75;;;;;;;15.52;100.00;99685.75;5114556;28;20035;-55
2022/10/15 07:12:07;;;;;;;1.13;0.95;;;;;;;15.52;100.00;99685.75;5113742;28;20035;-54
2022/10/15 07:14:32;;;;;;;4.82;1.00;;;;;;;15.53;100.00;99690.06;5113769;28;20064;-68
2022/10/15 07:16:58;;;;;;;0.68;0.57;;;;;;;15.54;100.00;99685.53;5113174;28;20043;-66
2022/10/15 07:19:24;;;;;;;1.67;1.23;;;;;;;15.56;100.00;99686.13;5112978;28;20027;-65
2022/10/15 07:21:50;;;;;;;1.88;0.85;;;;;;;15.57;100.00;99698.50;5112519;28;20488;-67
2022/10/15 07:24:16;;;;;;;2.40;1.40;;;;;;;15.54;100.00;99683.66;5112957;28;20085;-66
2022/10/15 07:26:46;;;;;;;1.85;1.50;;;;;;;15.59;100.00;99691.06;5112819;28;20036;-66
2022/10/15 07:29:12;;;;;;;2.13;1.80;;;;;;;15.60;100.00;99701.56;5112845;28;20134;-67
2022/10/15 07:31:37;;;;;;;2.88;0.77;;;;;;;15.60;100.00;99692.69;5112441;28;20111;-68
2022/10/15 07:34:03;;;;;;;4.85;1.35;;;;;;;15.62;100.00;99691.47;5112769;28;20035;-67
2022/10/15 07:36:28;;;;;;;1.38;0.93;;;;;;;15.60;100.00;99695.38;5112482;28;20035;-66
2022/10/15 07:38:54;;;;;;;1.20;0.90;;;;;;;15.62;100.00;99694.16;5112577;28;20038;-68
2022/10/15 07:41:19;;;;;;;0.85;0.85;;;;;;;15.59;100.00;99697.25;5112260;28;20058;-67
2022/10/15 07:43:44;;;;;;;1.40;0.90;;;;;;;15.60;100.00;99701.56;5112554;28;20126;-67
2022/10/15 07:46:10;;;;;;;1.63;1.23;;;;;;;15.61;100.00;99702.38;5112461;28;20047;-67
2022/10/15 07:48:36;;;;;;;0.88;0.77;;;;;;;15.62;100.00;99704.06;5112473;28;20043;-67
2022/10/15 07:51:04;;;;;;;1.10;0.82;;;;;;;15.64;100.00;99699.28;5112027;28;20040;-68
2022/10/15 07:53:30;;;;;;;0.65;0.63;;;;;;;15.66;100.00;99702.59;5112479;28;20396;-69
2022/10/15 07:56:09;;;;;;;0.60;0.60;;;;;;;15.60;100.00;99698.06;5112098;28;20065;-67
2022/10/15 07:58:37;;;;;;;2.40;1.25;;;;;;;15.68;100.00;99709.38;5112303;28;20059;-67
2022/10/15 08:01:09;;;;;;;2.75;0.60;;;;;;;15.70;100.00;99715.34;5112156;28;20028;-67
2022/10/15 08:03:36;;;;;;;2.45;0.80;;;;;;;15.71;100.00;99713.47;5112297;28;20483;-67
2022/10/15 08:06:03;;;;;;;0.70;0.70;;;;;;;15.73;100.00;99709.53;5112260;28;20047;-67
2022/10/15 08:08:29;;;;;;;4.10;1.00;;;;;;;15.75;100.00;99712.00;5112233;28;20038;-68
2022/10/15 08:10:54;;;;;;;2.30;0.50;;;;;;;15.75;100.00;99722.75;5111837;28;20105;-66
2022/10/15 08:13:20;;;;;;;0.60;0.60;;;;;;;15.76;100.00;99716.31;5112031;28;20040;-68
2022/10/15 08:15:49;;;;;;;0.63;0.57;;;;;;;15.84;100.00;99717.91;5111886;28;20042;-68
2022/10/15 08:18:15;;;;;;;1.20;0.80;;;;;;;15.80;100.00;99717.53;5112124;28;20035;-68
2022/10/15 08:20:41;;;;;;;0.85;0.57;;;;;;;15.84;100.00;99717.91;5111762;28;20484;-68
2022/10/15 08:23:14;;;;;;;0.50;0.50;;;;;;;15.91;100.00;99719.53;5111924;27;20130;-68
2022/10/15 08:25:40;;;;;;;1.10;0.55;;;;;;;15.88;100.00;99722.63;5111883;28;20492;-67
2022/10/15 08:28:06;;;;;;;1.27;0.82;;;;;;;15.86;100.00;99718.53;5111848;28;20032;-68
2022/10/15 08:30:32;;;;;;;1.40;0.50;;;;;;;15.85;100.00;99719.59;5111453;28;20488;-67
2022/10/15 08:32:57;;;;;;;0.70;0.70;;;;;;;15.81;100.00;99718.38;5112043;28;20107;-68
2022/10/15 08:35:22;;;;;;;0.90;0.70;;;;;;;15.82;100.00;99728.06;5111744;28;20076;-68
2022/10/15 08:37:48;;;;;;;0.60;0.60;;;;;;;15.83;100.00;99727.84;5111866;28;20122;-67
2022/10/15 08:40:14;;;;;;;0.50;0.50;;;;;;;15.87;100.00;99726.38;5111549;28;20040;-67
2022/10/15 08:42:42;;;;;;;1.05;0.75;;;;;;;15.84;100.00;99726.78;5111801;28;20044;-68
2022/10/15 08:45:18;;;;;;;0.52;0.52;;;;;;;15.84;100.00;99731.34;5111616;28;20035;-68
2022/10/15 08:48:04;;;;;;;1.30;0.70;;;;;;;15.83;100.00;99735.06;5111891;28;20112;-68
2022/10/15 08:50:44;;;;;;;0.95;0.85;;;;;;;15.85;100.00;99733.81;5111435;28;20119;-67
2022/10/15 08:53:17;;;;;;;1.10;0.70;;;;;;;15.86;100.00;99738.16;5111805;28;20040;-67
2022/10/15 08:55:48;;;;;;;0.60;0.60;;;;;;;15.85;100.00;99741.88;5111574;28;20027;-69
2022/10/15 08:58:39;;;;;;;0.90;0.40;;;;;;;15.87;100.00;99739.78;5111623;28;20042;-66
2022/10/15 09:01:17;;;;;;;0.20;0.20;;;;;;;15.90;100.00;99746.56;5111438;28;20484;-68
2022/10/15 09:03:50;;;;;;;0.85;0.50;;;;;;;15.94;100.00;99753.16;5111778;28;20404;-67
2022/10/15 09:06:31;;;;;;;0.32;0.32;;;;;;;15.97;100.00;99739.28;5113135;28;20039;-67
2022/10/15 09:09:14;;;;;;;0.57;0.38;;;;;;;16.01;100.00;99744.00;5114311;28;20054;-67
2022/10/15 09:12:16;;;;;;;0.88;0.77;;;;;;;16.05;100.00;99749.75;5115127;28;20046;-66
2022/10/15 09:14:45;;;;;;;2.05;0.93;;;;;;;16.08;100.00;99745.81;5115479;28;20034;-67
2022/10/15 09:17:19;;;;;;;1.65;0.60;;;;;;;16.12;100.00;99744.34;5115412;28;20446;-68
2022/10/15 09:19:48;;;;;;;0.82;0.47;;;;;;;16.20;100.00;99749.41;5115330;28;20067;-67
2022/10/15 09:22:17;;;;;;;3.13;0.50;;;;;;;16.31;100.00;99747.88;5114836;28;20074;-66
2022/10/15 09:24:44;;;;;;;0.40;0.30;;;;;;;16.47;100.00;99750.78;5115233;28;20119;-67
2022/10/15 09:27:31;;;;;;;0.88;0.55;;;;;;;16.65;100.00;99749.97;5115105;28;20118;-67
2022/10/15 09:30:17;;;;;;;0.73;0.43;;;;;;;16.77;100.00;99747.38;5114997;28;20036;-67
2022/10/15 09:33:27;;;;;;;0.63;0.47;;;;;;;16.85;100.00;99755.13;5115133;28;20075;-67
2022/10/15 09:36:05;;;;;;;0.60;0.50;;;;;;;16.93;100.00;99744.06;5104553;28;20048;-67
2022/10/15 09:39:01;;;;;;;2.08;0.32;;;;;;;17.02;100.00;99744.59;5115103;28;20050;-56
2022/10/15 09:41:45;;;;;;;2.60;0.40;;;;;;;17.13;100.00;99749.16;5115309;28;20027;-67
2022/10/15 09:44:13;;;;;;;1.20;0.63;;;;;;;17.16;100.00;99747.91;5114909;28;20108;-67
2022/10/15 09:46:48;;;;;;;2.47;0.50;;;;;;;17.15;100.00;99749.78;5114745;28;20100;-67
2022/10/15 09:49:19;;;;;;;1.63;0.88;;;;;;;17.16;100.00;99751.41;5114759;28;20046;-67
2022/10/15 09:52:15;;;;;;;0.43;0.40;;;;;;;17.19;100.00;99756.34;5114493;28;20032;-66
2022/10/15 09:55:11;;;;;;;2.60;0.40;;;;;;;17.16;100.00;99755.97;5114746;28;20506;-67
2022/10/15 09:57:38;;;;;;;0.68;0.45;;;;;;;17.15;100.00;99770.47;5114611;28;20031;-67
2022/10/15 10:00:07;;;;;;;5.18;0.70;;;;;;;17.09;100.00;99762.28;5114483;28;20039;-67
2022/10/15 10:02:39;;;;;;;0.40;0.38;;;;;;;17.02;100.00;99772.31;5114793;28;20043;-66
2022/10/15 10:05:37;;;;;;;0.38;0.38;;;;;;;17.04;100.00;99780.97;5114570;28;20119;-67
2022/10/15 10:08:26;;;;;;;0.40;0.38;;;;;;;17.00;100.00;99779.75;5102182;28;20140;-67
2022/10/15 10:10:57;;;;;;;1.10;0.60;;;;;;;17.03;100.00;99767.75;5114082;28;20118;-66
2022/10/15 10:13:30;;;;;;;3.17;0.50;;;;;;;16.94;100.00;99758.31;5114355;28;20040;-67
2022/10/15 10:16:10;;;;;;;0.45;0.38;;;;;;;16.92;100.00;99771.19;5114413;28;20047;-67
2022/10/15 10:18:36;;;;;;;1.70;0.77;;;;;;;16.92;100.00;99771.19;5114119;28;20092;-67
2022/10/15 10:21:25;;;;;;;1.33;0.65;;;;;;;16.91;100.00;99780.31;5113765;28;20039;-67
2022/10/15 10:23:51;;;;;;;0.40;0.30;;;;;;;16.97;100.00;99776.72;5114024;28;20039;-67
2022/10/15 10:26:17;;;;;;;0.77;0.65;;;;;;;17.05;100.00;99771.03;5114016;27;20032;-68
2022/10/15 10:28:50;;;;;;;0.82;0.50;;;;;;;17.18;100.00;99770.03;5114062;28;20043;-67
2022/10/15 10:31:16;;;;;;;1.48;0.90;;;;;;;17.35;100.00;99773.72;5113498;28;20198;-67
2022/10/15 10:33:41;;;;;;;2.75;0.55;;;;;;;17.70;100.00;99778.38;5113857;28;20032;-67
2022/10/15 10:36:17;;;;;;;1.48;0.60;;;;;;;17.96;100.00;99769.09;5114326;28;20491;-68
2022/10/15 10:39:14;;;;;;;0.50;0.50;;;;;;;18.15;100.00;99766.06;5113795;28;20039;-67
2022/10/15 10:42:21;;;;;;;0.55;0.55;;;;;;;18.28;100.00;99766.88;5113470;28;20032;-66
2022/10/15 10:44:47;;;;;;;0.68;0.50;;;;;;;18.45;100.00;99765.09;5113656;28;20104;-67
2022/10/15 10:47:18;;;;;;;0.60;0.60;;;;;;;18.47;100.00;99762.19;5112268;28;20551;-67
2022/10/15 10:49:46;;;;;;;1.85;0.40;;;;;;;18.39;100.00;99764.19;5113913;28;20043;-68
2022/10/15 10:52:24;;;;;;;0.45;0.30;;;;;;;18.83;100.00;99761.06;5113320;28;20586;-67
2022/10/15 10:55:17;;;;;;;1.88;0.70;;;;;;;19.91;97.23;99762.81;5113515;28;20035;-68
2022/10/15 10:57:54;;;;;;;0.30;0.30;;;;;;;20.12;95.50;99763.13;5110877;28;20043;-68
2022/10/15 11:00:28;;;;;;;1.23;0.47;;;;;;;19.84;92.59;99756.75;5113095;28;20081;-68
2022/10/15 11:02:53;;;;;;;0.95;0.52;;;;;;;19.71;93.68;99759.78;5103880;28;20123;-66
2022/10/15 11:05:25;;;;;;;0.30;0.30;;;;;;;19.52;94.04;99759.16;5109060;28;20110;-66
2022/10/15 11:08:11;;;;;;;0.40;0.40;;;;;;;19.34;95.80;99762.88;5112425;28;20452;-67
2022/10/15 11:10:44;;;;;;;2.60;0.70;;;;;;;19.22;97.25;99765.63;5111836;28;20031;-66
2022/10/15 11:13:23;;;;;;;0.98;0.50;;;;;;;19.10;94.54;99767.53;5111413;28;20077;-66
2022/10/15 11:16:10;;;;;;;0.50;0.50;;;;;;;18.83;95.25;99756.47;5112575;28;20040;-66
2022/10/15 11:18:54;;;;;;;0.40;0.40;;;;;;;18.69;94.97;99755.94;5111525;28;20027;-66
2022/10/15 11:21:47;;;;;;;1.05;0.40;;;;;;;18.60;97.02;99756.53;5111894;28;20035;-66
2022/10/15 11:24:29;;;;;;;0.50;0.38;;;;;;;18.48;94.58;99758.41;5112424;28;20044;-66
2022/10/15 11:27:13;;;;;;;1.60;0.40;;;;;;;18.46;95.58;99752.44;5112460;28;20050;-66
2022/10/15 11:29:52;;;;;;;1.70;0.65;;;;;;;18.40;97.01;99752.34;5112571;28;20031;-67
2022/10/15 11:32:39;;;;;;;0.68;0.50;;;;;;;18.31;94.70;99744.81;5105351;28;20032;-66
2022/10/15 11:35:15;;;;;;;1.77;0.88;;;;;;;18.26;96.12;99747.44;5094045;28;20070;-66
2022/10/15 11:38:02;;;;;;;0.55;0.32;;;;;;;18.22;95.66;99746.25;5112016;28;20115;-67
2022/10/15 11:41:04;;;;;;;1.15;0.93;;;;;;;18.27;96.26;99746.38;5111133;28;20031;-66
2022/10/15 11:44:01;;;;;;;0.40;0.38;;;;;;;18.29;94.64;99738.84;5107698;28;20114;-66
2022/10/15 11:46:46;;;;;;;0.68;0.68;;;;;;;18.18;92.42;99759.34;5109865;28;20034;-66
2022/10/15 11:49:39;;;;;;;1.33;0.40;;;;;;;18.24;92.09;99741.44;5112050;28;20098;-65
2022/10/15 11:52:29;;;;;;;0.35;0.30;;;;;;;18.21;93.86;99747.31;5109539;28;20032;-65
2022/10/15 11:55:04;;;;;;;0.40;0.40;;;;;;;18.27;92.25;99747.19;5109943;28;20076;-65
2022/10/15 11:57:32;;;;;;;1.27;0.60;;;;;;;18.28;93.93;99759.59;5109680;28;20039;-66
2022/10/15 12:00:16;;;;;;;0.43;0.43;;;;;;;18.25;93.68;99757.38;5111144;28;20031;-66
2022/10/15 12:02:44;;;;;;;0.50;0.45;;;;;;;18.22;94.00;99748.94;5109512;28;20099;-66
2022/10/15 12:05:27;;;;;;;1.07;0.50;;;;;;;18.16;93.32;99739.91;5111471;28;20081;-67
2022/10/15 12:07:54;;;;;;;0.43;0.43;;;;;;;18.16;94.09;99742.63;5111356;28;20273;-66
2022/10/15 12:10:41;;;;;;;0.65;0.55;;;;;;;18.19;94.53;99739.44;5110675;28;20051;-66
2022/10/15 12:13:07;;;;;;;1.17;0.52;;;;;;;18.15;94.86;99732.88;5110098;28;20038;-66
2022/10/15 12:15:50;;;;;;;2.40;0.57;;;;;;;18.17;95.81;99734.28;5109458;28;20032;-67
2022/10/15 12:18:20;;;;;;;1.13;0.60;;;;;;;18.21;95.56;99728.44;5108909;28;20059;-66
2022/10/15 12:20:45;;;;;;;3.70;0.82;;;;;;;18.17;96.49;99736.16;5110436;28;20032;-66
2022/10/15 12:23:35;;;;;;;0.65;0.60;;;;;;;18.21;97.60;99731.13;5111692;28;20031;-65
2022/10/15 12:26:22;;;;;;;0.30;0.30;;;;;;;18.12;100.00;99728.78;5109697;28;20030;-66
2022/10/15 12:28:50;;;;;;;0.63;0.40;;;;;;;18.11;100.00;99735.22;5109019;28;20028;-67
2022/10/15 12:31:19;;;;;;;0.68;0.47;;;;;;;18.04;99.81;99737.22;5110538;28;20054;-67
2022/10/15 12:33:49;;;;;;;0.63;0.40;;;;;;;17.87;100.00;99738.97;5108690;28;20042;-66
2022/10/15 12:36:18;;;;;;;0.60;0.52;;;;;;;17.83;100.00;99738.63;5111234;28;20113;-67
2022/10/15 12:38:57;;;;;;;0.45;0.40;;;;;;;17.82;100.00;99744.25;5111587;28;20462;-66
2022/10/15 12:41:36;;;;;;;0.88;0.70;;;;;;;17.75;100.00;99736.28;5105915;28;20153;-67
2022/10/15 12:44:22;;;;;;;0.40;0.40;;;;;;;17.72;100.00;99741.28;5113498;28;20039;-65
2022/10/15 12:46:48;;;;;;;0.50;0.50;;;;;;;17.71;100.00;99743.16;5113014;28;20066;-65
2022/10/15 12:49:26;;;;;;;0.50;0.50;;;;;;;17.70;100.00;99746.88;5113964;28;20061;-65
2022/10/15 12:52:20;;;;;;;0.50;0.30;;;;;;;17.72;100.00;99746.69;5110540;28;20028;-67
2022/10/15 12:54:46;;;;;;;0.95;0.73;;;;;;;17.63;100.00;99744.28;5114904;28;20038;-66
2022/10/15 12:57:36;;;;;;;1.30;0.70;;;;;;;17.60;100.00;99747.47;5114784;27;20042;-67
2022/10/15 13:00:23;;;;;;;1.92;0.82;;;;;;;17.44;100.00;99739.22;5114735;28;20072;-67
2022/10/15 13:02:49;;;;;;;;;;;;;;;17.38;100.00;99737.44;5112742;28;20127;-65
2022/10/15 13:05:29;;;;;;;0.85;0.65;;;;;;;17.34;100.00;99739.75;5114900;28;19915;-67
2022/10/15 13:07:57;;;;;;;1.08;0.55;;;;;;;17.26;100.00;99734.72;5114218;28;20032;-56
2022/10/15 13:10:26;;;;;;;;;;;;;;;17.25;100.00;99741.16;5113612;28;20035;-56
2022/10/15 13:12:56;;;;;;;1.90;0.80;;;;;;;17.22;100.00;99737.06;5110197;28;19919;-55
2022/10/15 13:15:28;;;;;;;0.70;0.60;;;;;;;17.19;100.00;99732.09;5114153;28;20031;-55
2022/10/15 13:17:58;;;;;;;1.08;0.80;;;;;;;17.19;100.00;99728.59;5112861;28;20393;-57
2022/10/15 13:20:36;;;;;;;0.93;0.60;;;;;;;17.17;100.00;99725.31;5111091;28;20112;-67
2022/10/15 13:23:13;;;;;;;;;;;;;;;17.09;100.00;99729.97;5115719;28;20036;-67
2022/10/15 13:25:40;;;;;;;0.63;0.50;;;;;;;16.99;100.00;99731.56;5115464;28;19934;-67
2022/10/15 13:28:28;;;;;;;1.35;0.63;;;;;;;16.93;100.00;99735.97;5115309;28;20500;-68
2022/10/15 13:30:54;;;;;;;0.93;0.60;;;;;;;16.84;100.00;99740.03;5114841;28;20159;-67
2022/10/15 13:33:20;;;;;;;0.90;0.60;;;;;;;16.76;100.00;99735.81;5115056;27;20040;-67
2022/10/15 13:35:46;;;;;;;0.93;0.70;;;;;;;16.73;100.00;99738.09;5114830;28;20104;-67
2022/10/15 13:38:21;;;;;;;1.25;0.70;;;;;;;16.63;100.00;99735.09;5115126;28;20043;-66
2022/10/15 13:40:52;;;;;;;0.75;0.70;;;;;;;16.57;100.00;99738.69;5114807;28;20054;-67
2022/10/15 13:43:23;;;;;;;1.27;0.75;;;;;;;16.50;100.00;99731.53;5114946;28;20043;-67
2022/10/15 13:45:52;;;;;;;0.52;0.52;;;;;;;16.44;100.00;99732.41;5114833;28;20082;-68
2022/10/15 13:48:21;;;;;;;1.48;0.98;;;;;;;16.41;100.00;99732.84;5114761;27;20028;-67
2022/10/15 13:50:51;;;;;;;0.90;0.80;;;;;;;16.39;100.00;99729.56;5114394;28;20047;-66
2022/10/15 13:53:27;;;;;;;2.55;0.88;;;;;;;16.36;100.00;99734.56;5114512;28;20571;-66
2022/10/15 13:55:56;;;;;;;4.20;0.80;;;;;;;16.40;100.00;99736.59;5113373;28;20338;-66
2022/10/15 13:58:27;;;;;;;1.48;0.70;;;;;;;16.38;100.00;99737.88;5114586;28;20044;-69
2022/10/15 14:00:58;;;;;;;1.50;0.73;;;;;;;16.42;100.00;99729.09;5114212;28;20047;-68
2022/10/15 14:03:28;;;;;;;1.25;0.85;;;;;;;16.41;100.00;99723.97;5114497;28;20128;-68
2022/10/15 14:05:54;;;;;;;0.60;0.60;;;;;;;16.33;100.00;99724.28;5114346;28;20058;-67
2022/10/15 14:08:32;;;;;;;1.48;0.60;;;;;;;16.34;100.00;99707.91;5114290;28;20063;-68
2022/10/15 14:10:58;;;;;;;1.08;0.63;;;;;;;16.30;100.00;99706.72;5113943;28;20445;-67
2022/10/15 14:13:25;;;;;;;0.93;0.57;;;;;;;16.28;100.00;99703.44;5114278;27;20476;-67
2022/10/15 14:16:15;;;;;;;0.93;0.70;;;;;;;16.28;100.00;99704.25;5114238;28;20110;-68
2022/10/15 14:18:44;;;;;;;1.25;0.80;;;;;;;16.24;100.00;99705.75;5114201;28;20040;-69
2022/10/15 14:21:13;;;;;;;0.70;0.50;;;;;;;16.26;100.00;99714.41;5113821;28;20023;-68
2022/10/15 14:23:40;;;;;;;0.77;0.70;;;;;;;16.25;100.00;99703.88;5113975;28;20057;-68
2022/10/15 14:26:06;;;;;;;1.42;0.82;;;;;;;16.27;100.00;99707.16;5114152;28;20050;-69
2022/10/15 14:28:33;;;;;;;1.45;0.75;;;;;;;16.31;100.00;99710.25;5114016;27;20036;-68
2022/10/15 14:31:00;;;;;;;1.20;1.00;;;;;;;16.34;100.00;99723.22;5113538;28;20389;-67
2022/10/15 14:33:33;;;;;;;1.10;1.00;;;;;;;16.39;100.00;99718.00;5113955;28;20562;-67
2022/10/15 14:36:06;;;;;;;2.58;1.20;;;;;;;16.45;100.00;99715.25;5113750;28;20684;-68
2022/10/15 14:38:31;;;;;;;0.60;0.60;;;;;;;16.52;100.00;99715.16;5113850;28;20036;-68
2022/10/15 14:41:08;;;;;;;1.92;1.10;;;;;;;16.52;100.00;99715.16;5113680;28;20028;-68
2022/10/15 14:43:36;;;;;;;2.50;1.10;;;;;;;16.48;100.00;99717.47;5113700;28;20034;-68
2022/10/15 14:46:10;;;;;;;1.80;0.93;;;;;;;16.47;100.00;99715.81;5113593;28;20087;-66
2022/10/15 14:48:37;;;;;;;1.33;0.60;;;;;;;16.47;100.00;99718.50;5113545;28;20023;-67
2022/10/15 14:51:06;;;;;;;1.75;1.15;;;;;;;16.49;100.00;99723.66;5113184;28;20114;-68
2022/10/15 14:53:35;;;;;;;1.10;0.82;;;;;;;16.50;100.00;99725.31;5112391;28;20046;-67
2022/10/15 14:56:29;;;;;;;2.30;0.98;;;;;;;16.52;100.00;99724.03;5113385;28;20040;-68
2022/10/15 14:58:56;;;;;;;2.33;0.63;;;;;;;16.48;100.00;99722.84;5113442;28;20035;-68
2022/10/15 15:01:22;;;;;;;1.38;0.93;;;;;;;16.48;100.00;99722.84;5111927;28;20031;-68
2022/10/15 15:03:51;;;;;;;1.60;1.00;;;;;;;16.44;100.00;99727.03;5113242;28;20028;-69
2022/10/15 15:06:17;;;;;;;0.95;0.60;;;;;;;16.42;100.00;99717.53;5112289;28;20512;-67
2022/10/15 15:08:42;;;;;;;1.13;0.80;;;;;;;16.44;100.00;99723.53;5113269;28;20040;-68
2022/10/15 15:11:16;;;;;;;3.03;0.90;;;;;;;16.41;100.00;99721.28;5112844;28;20126;-66
2022/10/15 15:13:43;;;;;;;1.85;1.08;;;;;;;16.45;100.00;99717.09;5111971;28;20400;-68
2022/10/15 15:16:12;;;;;;;2.53;1.50;;;;;;;16.41;100.00;99719.41;5113159;28;20040;-68
2022/10/15 15:18:38;;;;;;;1.48;1.02;;;;;;;16.43;100.00;99725.41;5113216;28;20046;-68
2022/10/15 15:21:06;;;;;;;7.43;1.10;;;;;;;16.45;100.00;99728.69;5112572;28;20031;-68
2022/10/15 15:23:33;;;;;;;1.52;1.08;;;;;;;16.42;100.00;99728.28;5107268;28;20036;-68
2022/10/15 15:25:59;;;;;;;1.83;1.00;;;;;;;16.41;100.00;99730.16;5106270;28;20039;-68
2022/10/15 15:28:28;;;;;;;1.45;1.10;;;;;;;16.45;100.00;99733.22;5109149;28;20115;-68
2022/10/15 15:30:59;;;;;;;2.47;1.30;;;;;;;16.40;100.00;99725.00;5111837;28;20035;-68
2022/10/15 15:33:24;;;;;;;2.55;1.58;;;;;;;16.40;100.00;99728.53;5112401;28;20038;-68
2022/10/15 15:35:54;;;;;;;1.98;1.10;;;;;;;16.30;100.00;99706.72;5112576;28;20035;-69
2022/10/15 15:38:22;;;;;;;2.22;1.48;;;;;;;16.42;100.00;99723.72;5112392;28;20036;-68
2022/10/15 15:40:49;;;;;;;2.72;1.30;;;;;;;16.41;100.00;99727.47;5111693;28;20074;-69
2022/10/15 15:43:17;;;;;;;1.60;1.02;;;;;;;16.42;100.00;99737.19;5112523;28;20043;-68
2022/10/15 15:45:43;;;;;;;1.00;0.70;;;;;;;16.49;100.00;99737.09;5112544;28;20031;-67
2022/10/15 15:48:09;;;;;;;3.47;0.93;;;;;;;16.54;100.00;99740.75;5112276;28;20039;-67
2022/10/15 15:50:35;;;;;;;1.40;0.80;;;;;;;16.61;100.00;99740.69;5111692;28;20040;-68
2022/10/15 15:53:00;;;;;;;2.00;1.00;;;;;;;16.65;100.00;99741.06;5112267;28;20084;-69
2022/10/15 15:55:26;;;;;;;1.77;0.90;;;;;;;16.63;100.00;99737.81;5112784;28;20405;-67
2022/10/15 15:57:51;;;;;;;0.90;0.45;;;;;;;16.67;100.00;99742.47;5112401;28;20552;-67
2022/10/15 16:00:17;;;;;;;0.52;0.50;;;;;;;16.72;100.00;99744.53;5112036;28;20028;-68
2022/10/15 16:02:43;;;;;;;0.55;0.50;;;;;;;16.70;100.00;99746.63;5112321;28;20373;-68
2022/10/15 16:05:11;;;;;;;3.40;0.70;;;;;;;16.71;100.00;99748.28;5112359;28;20552;-68
2022/10/15 16:07:37;;;;;;;0.98;0.60;;;;;;;16.72;100.00;99749.91;5112325;28;20036;-68
2022/10/15 16:10:05;;;;;;;1.05;0.57;;;;;;;16.66;100.00;99754.28;5112065;28;20104;-68
2022/10/15 16:12:32;;;;;;;0.80;0.55;;;;;;;16.58;100.00;99754.59;5112079;28;20110;-68